メインページ
METAR-TAF:

METAR-TAF

空港 :

コロール, Babelthuap Island, パラオ

ロマン・トメトゥチェル国際空港

緯度: 07-22N, 経度: 134-32E, 海抜: 54m

現時点の気象観測

当レポートは53分前の13:51(UTC)に作成
無風
気温 25°C
湿度 94%
気圧 1011 hPa
視程: 24.1km
高度1600ftの雲は散在している
高度30000ftの千切れ雲あり

METAR: PTRO 271351Z 00000KT 15SM SCT016 BKN300 25/24 A2984

時間: 23:44 (14:44 UTC)

予報

当レポートは3時間5分前の11:39(UTC)に作成
予報は27日の 12時(UTC)から 28日の 12時(UTC)まで有効
変向風 3kt
視程: 10km
高度1600ftの雲は散在している
高度12000ftの千切れ雲あり
近辺でにわか雨

TAF: PTRO 271139Z 2712/2812 VRB03KT P6SM VCSH SCT016 BKN120

4,000以上の空港の気象観測と天気予報(METAR報とTAF報)

利用可能な観測所は地図上に黄色い丸と赤い丸で示す。

丸の上にカーソルを重ねると観測所名を参照できる。

次にクリックすると気象観測と天気予報を参照できる。

マップの切り替え:黒色「×」印の緑ボタンをクリックして拡大、「-」印の緑ボタンをクリックして縮小、緑色の三角印をクリックして隣りの地図に切り替え


METAR-TAF: